createdAt,value
2022-09-12T00:02:08.900Z,21.39
2022-09-12T00:05:10.992Z,21.42
2022-09-12T00:08:14.193Z,21.36
2022-09-12T00:11:16.264Z,21.37
2022-09-12T00:14:19.505Z,21.38
2022-09-12T00:17:21.553Z,21.36
2022-09-12T00:20:23.547Z,21.34
2022-09-12T00:23:25.532Z,21.33
2022-09-12T00:26:27.720Z,21.35
2022-09-12T00:29:29.974Z,21.31
2022-09-12T00:32:32.040Z,21.31
2022-09-12T00:35:34.044Z,21.28
2022-09-12T00:38:38.532Z,21.27
2022-09-12T00:41:40.649Z,21.28
2022-09-12T00:44:46.005Z,21.25
2022-09-12T00:47:48.145Z,21.25
2022-09-12T00:50:50.512Z,21.28
2022-09-12T00:53:54.781Z,21.25
2022-09-12T00:57:01.540Z,21.25
2022-09-12T01:00:16.727Z,21.22
2022-09-12T01:03:21.331Z,21.22
2022-09-12T01:06:36.484Z,21.20
2022-09-12T01:09:39.885Z,21.16
2022-09-12T01:12:44.133Z,21.20
2022-09-12T01:15:46.586Z,21.18
2022-09-12T01:19:06.347Z,21.16
2022-09-12T01:22:17.531Z,21.16
2022-09-12T01:25:44.253Z,21.13
2022-09-12T01:29:09.433Z,21.14
2022-09-12T01:32:26.402Z,21.09
2022-09-12T01:35:48.670Z,21.13
2022-09-12T01:38:59.343Z,21.13
2022-09-12T01:42:19.296Z,21.11
2022-09-12T01:45:33.346Z,21.09
2022-09-12T01:48:47.661Z,21.08
2022-09-12T01:52:01.630Z,21.08
2022-09-12T01:55:18.709Z,21.06
2022-09-12T01:58:29.176Z,21.04
2022-09-12T02:01:54.908Z,21.05
2022-09-12T02:05:12.721Z,21.05
2022-09-12T02:08:20.435Z,21.04
2022-09-12T02:11:22.649Z,21.04
2022-09-12T02:14:29.877Z,21.04
2022-09-12T02:17:39.695Z,21.02
2022-09-12T02:20:50.270Z,20.99
2022-09-12T02:23:58.319Z,20.98
2022-09-12T02:27:07.658Z,20.99
2022-09-12T02:30:10.852Z,20.95
2022-09-12T02:33:19.903Z,20.95
2022-09-12T02:36:32.792Z,20.98
2022-09-12T02:39:35.668Z,20.93
2022-09-12T02:42:38.077Z,20.92
2022-09-12T02:45:40.367Z,20.95
2022-09-12T02:48:44.103Z,20.94
2022-09-12T02:51:47.605Z,20.93
2022-09-12T02:54:50.032Z,20.92
2022-09-12T02:57:52.045Z,20.87
2022-09-12T03:01:13.785Z,20.88
2022-09-12T03:04:41.066Z,20.89
2022-09-12T03:07:49.752Z,20.89
2022-09-12T03:11:03.696Z,20.87
2022-09-12T03:14:24.125Z,20.84
2022-09-12T03:17:49.696Z,20.85
2022-09-12T03:21:07.264Z,20.83
2022-09-12T03:24:25.167Z,20.84
2022-09-12T03:27:36.231Z,20.80
2022-09-12T03:30:46.832Z,20.83
2022-09-12T03:33:48.890Z,20.83
2022-09-12T03:36:51.596Z,20.76
2022-09-12T03:39:53.635Z,20.79
2022-09-12T03:42:55.929Z,20.79
2022-09-12T03:45:57.949Z,20.78
2022-09-12T03:49:00.008Z,20.76
2022-09-12T03:52:02.245Z,20.76
2022-09-12T03:55:05.009Z,20.72
2022-09-12T03:58:07.244Z,20.74
2022-09-12T04:01:12.489Z,20.72
2022-09-12T04:04:14.610Z,20.72
2022-09-12T04:07:17.453Z,20.69
2022-09-12T04:10:19.518Z,20.70
2022-09-12T04:13:21.666Z,20.71
2022-09-12T04:16:23.769Z,20.68
2022-09-12T04:19:26.875Z,20.64
2022-09-12T04:22:29.961Z,20.64
2022-09-12T04:25:32.399Z,20.66
2022-09-12T04:28:36.276Z,20.64
2022-09-12T04:31:38.461Z,20.66
2022-09-12T04:34:40.501Z,20.62
2022-09-12T04:37:42.519Z,20.64
2022-09-12T04:40:44.643Z,20.58
2022-09-12T04:43:48.348Z,20.61
2022-09-12T04:46:50.387Z,20.62
2022-09-12T04:49:52.406Z,20.58
2022-09-12T04:52:55.141Z,20.60
2022-09-12T04:56:02.475Z,20.65
2022-09-12T04:59:04.828Z,20.65
2022-09-12T05:02:07.086Z,20.66
2022-09-12T05:05:09.836Z,20.66
2022-09-12T05:08:11.867Z,20.71
2022-09-12T05:11:16.283Z,20.73
2022-09-12T05:14:18.439Z,20.71
2022-09-12T05:17:20.709Z,20.69
2022-09-12T05:20:22.691Z,20.71
2022-09-12T05:23:24.930Z,20.66
2022-09-12T05:26:27.719Z,20.64
2022-09-12T05:29:29.826Z,20.63
2022-09-12T05:32:32.446Z,20.59
2022-09-12T05:35:34.467Z,20.63
2022-09-12T05:38:37.372Z,20.58
2022-09-12T05:41:39.514Z,20.59
2022-09-12T05:44:41.638Z,20.54
2022-09-12T05:47:46.252Z,20.54
2022-09-12T05:50:48.251Z,20.51
2022-09-12T05:53:58.476Z,20.51
2022-09-12T05:57:00.600Z,20.50
2022-09-12T06:00:04.092Z,20.54
2022-09-12T06:03:06.293Z,20.60
2022-09-12T06:06:08.584Z,20.62
2022-09-12T06:09:11.980Z,20.62
2022-09-12T06:12:14.126Z,20.64
2022-09-12T06:15:16.662Z,20.69
2022-09-12T06:18:18.690Z,20.71
2022-09-12T06:21:21.840Z,20.68
2022-09-12T06:24:23.916Z,20.49
2022-09-12T06:27:26.573Z,20.47
2022-09-12T06:30:28.677Z,20.51
2022-09-12T06:33:33.433Z,20.70
2022-09-12T06:36:41.625Z,20.89
2022-09-12T06:39:43.643Z,21.00
2022-09-12T06:42:45.767Z,21.05
2022-09-12T06:45:49.852Z,21.05
2022-09-12T06:48:52.777Z,21.11
2022-09-12T06:51:54.765Z,21.11
2022-09-12T06:54:56.737Z,21.19
2022-09-12T06:57:58.758Z,21.25
2022-09-12T07:01:15.590Z,21.33
2022-09-12T07:04:17.831Z,21.34
2022-09-12T07:07:20.005Z,21.37
2022-09-12T07:10:22.741Z,21.38
2022-09-12T07:13:25.431Z,21.43
2022-09-12T07:16:27.884Z,21.46
2022-09-12T07:19:30.063Z,21.46
2022-09-12T07:22:32.229Z,21.49
2022-09-12T07:25:34.337Z,21.54
2022-09-12T07:28:36.924Z,21.65
2022-09-12T07:31:38.948Z,21.70
2022-09-12T07:34:42.149Z,21.69
2022-09-12T07:37:44.205Z,21.67
2022-09-12T07:40:46.413Z,21.72
2022-09-12T07:43:51.688Z,21.78
2022-09-12T07:46:53.728Z,21.76
2022-09-12T07:49:55.694Z,21.74
2022-09-12T07:52:57.693Z,21.83
2022-09-12T07:56:00.023Z,21.76
2022-09-12T07:59:02.144Z,21.78
2022-09-12T08:02:04.224Z,21.89
2022-09-12T08:05:06.781Z,21.95
2022-09-12T08:08:09.774Z,22.03
2022-09-12T08:11:13.959Z,22.07
2022-09-12T08:14:17.671Z,22.17
2022-09-12T08:17:19.898Z,22.14
2022-09-12T08:20:24.311Z,21.96
2022-09-12T08:23:30.396Z,22.09
2022-09-12T08:26:33.650Z,22.18
2022-09-12T08:29:38.568Z,22.27
2022-09-12T08:32:40.633Z,22.33
2022-09-12T08:35:42.700Z,22.38
2022-09-12T08:38:46.763Z,22.43
2022-09-12T08:41:54.364Z,22.47
2022-09-12T08:45:09.230Z,22.46
2022-09-12T08:48:12.491Z,22.46
2022-09-12T08:51:18.348Z,22.47
2022-09-12T08:54:26.737Z,22.42
2022-09-12T08:57:28.789Z,21.85
2022-09-12T09:00:54.280Z,21.65
2022-09-12T09:04:15.165Z,21.62
2022-09-12T09:07:37.473Z,21.57
2022-09-12T09:11:02.520Z,21.61
2022-09-12T09:14:49.066Z,21.61
2022-09-12T09:18:04.812Z,21.61
2022-09-12T09:21:20.118Z,21.66
2022-09-12T09:24:26.441Z,21.62
2022-09-12T09:27:41.549Z,21.62
2022-09-12T09:30:45.113Z,21.64
2022-09-12T09:33:56.611Z,21.66
2022-09-12T09:37:18.757Z,21.76
2022-09-12T09:40:36.330Z,21.77
2022-09-12T09:43:40.160Z,21.81
2022-09-12T09:46:42.355Z,21.72
2022-09-12T09:49:44.637Z,21.63
2022-09-12T09:52:49.347Z,21.58
2022-09-12T09:55:53.460Z,21.62
2022-09-12T09:58:55.848Z,21.55
2022-09-12T10:02:24.257Z,21.52
2022-09-12T10:05:26.662Z,21.52
2022-09-12T10:08:32.852Z,21.61
2022-09-12T10:11:45.226Z,21.65
2022-09-12T10:15:03.277Z,21.73
2022-09-12T10:18:05.476Z,21.75
2022-09-12T10:21:30.755Z,21.73
2022-09-12T10:24:37.853Z,21.69
2022-09-12T10:27:42.187Z,21.77
2022-09-12T10:30:52.439Z,21.79
2022-09-12T10:33:55.724Z,21.82
2022-09-12T10:37:05.958Z,21.85
2022-09-12T10:40:20.914Z,21.83
2022-09-12T10:43:33.744Z,21.90
2022-09-12T10:46:35.828Z,21.89
2022-09-12T10:49:40.242Z,21.90
2022-09-12T10:52:42.288Z,21.91
2022-09-12T10:56:01.479Z,21.95
2022-09-12T10:59:31.297Z,21.96
2022-09-12T11:02:38.851Z,21.93
2022-09-12T11:05:54.900Z,21.94
2022-09-12T11:09:06.859Z,21.97
2022-09-12T11:12:25.971Z,22.16
2022-09-12T11:15:52.357Z,22.14
2022-09-12T11:19:21.774Z,22.12
2022-09-12T11:22:38.544Z,22.17
2022-09-12T11:26:00.077Z,22.27
2022-09-12T11:29:38.262Z,22.24
2022-09-12T11:33:00.188Z,22.22
2022-09-12T11:36:07.362Z,22.27
2022-09-12T11:39:37.235Z,22.31
2022-09-12T11:42:40.836Z,22.31
2022-09-12T11:45:45.495Z,22.34
2022-09-12T11:49:04.826Z,22.37
2022-09-12T11:52:26.012Z,22.53
2022-09-12T11:55:32.457Z,22.54
2022-09-12T11:58:36.580Z,22.50
2022-09-12T12:01:48.218Z,22.56
2022-09-12T12:05:16.303Z,22.63
2022-09-12T12:08:19.181Z,22.72
2022-09-12T12:11:44.793Z,22.83
2022-09-12T12:14:49.591Z,23.02
2022-09-12T12:18:16.896Z,22.91
2022-09-12T12:21:29.647Z,22.97
2022-09-12T12:24:34.018Z,23.07
2022-09-12T12:27:47.893Z,23.10
2022-09-12T12:30:56.740Z,23.31
2022-09-12T12:34:04.573Z,23.61
2022-09-12T12:37:21.550Z,23.82
2022-09-12T12:40:26.923Z,23.99
2022-09-12T12:43:32.054Z,23.96
2022-09-12T12:46:38.821Z,23.87
2022-09-12T12:49:41.000Z,24.04
2022-09-12T12:52:52.239Z,24.50
2022-09-12T12:55:56.363Z,24.12
2022-09-12T12:59:01.444Z,23.86
2022-09-12T13:02:04.749Z,24.03
2022-09-12T13:05:21.004Z,24.13
2022-09-12T13:08:34.615Z,24.31
2022-09-12T13:11:39.726Z,24.41
2022-09-12T13:14:51.747Z,24.63
2022-09-12T13:17:58.920Z,24.72
2022-09-12T13:21:20.607Z,24.68
2022-09-12T13:24:23.770Z,24.43
2022-09-12T13:27:26.279Z,24.54
2022-09-12T13:30:34.919Z,24.54
2022-09-12T13:33:39.785Z,24.15
2022-09-12T13:36:53.755Z,23.91
2022-09-12T13:40:25.002Z,24.04
2022-09-12T13:43:40.389Z,24.28
2022-09-12T13:46:42.764Z,24.71
2022-09-12T13:49:47.052Z,25.08
2022-09-12T13:53:11.523Z,25.12
2022-09-12T13:56:18.655Z,24.94
2022-09-12T13:59:20.761Z,25.19
2022-09-12T14:02:24.661Z,24.89
2022-09-12T14:05:27.041Z,24.88
2022-09-12T14:08:30.352Z,24.98
2022-09-12T14:11:33.930Z,24.91
2022-09-12T14:14:37.910Z,25.29
2022-09-12T14:17:41.072Z,25.37
2022-09-12T14:20:44.339Z,25.54
2022-09-12T14:23:48.898Z,25.53
2022-09-12T14:26:56.729Z,25.24
2022-09-12T14:30:07.455Z,25.40
2022-09-12T14:33:12.594Z,25.79
2022-09-12T14:36:27.284Z,25.67
2022-09-12T14:39:33.529Z,25.36
2022-09-12T14:42:35.649Z,25.36
2022-09-12T14:45:37.703Z,25.65
2022-09-12T14:48:46.895Z,25.62
2022-09-12T14:51:56.660Z,25.49
2022-09-12T14:55:20.338Z,25.48
2022-09-12T14:58:26.514Z,25.36
2022-09-12T15:01:28.801Z,25.43
2022-09-12T15:04:42.416Z,25.36
2022-09-12T15:07:48.218Z,25.24
2022-09-12T15:10:50.773Z,25.02
2022-09-12T15:13:52.964Z,25.04
2022-09-12T15:16:55.011Z,24.91
2022-09-12T15:19:57.032Z,24.86
2022-09-12T15:22:59.424Z,24.86
2022-09-12T15:26:02.184Z,25.05
2022-09-12T15:29:04.209Z,24.80
2022-09-12T15:32:09.741Z,24.75
2022-09-12T15:35:22.573Z,24.54
2022-09-12T15:38:26.748Z,24.41
2022-09-12T15:41:33.133Z,24.32
2022-09-12T15:44:35.117Z,24.34
2022-09-12T15:47:37.420Z,24.31
2022-09-12T15:50:40.506Z,24.46
2022-09-12T15:53:43.142Z,24.42
2022-09-12T15:56:45.199Z,24.34
2022-09-12T15:59:47.401Z,24.27
2022-09-12T16:02:52.092Z,24.25
2022-09-12T16:06:00.255Z,24.19
2022-09-12T16:09:02.345Z,24.18
2022-09-12T16:12:04.508Z,24.16
2022-09-12T16:15:07.068Z,24.10
2022-09-12T16:18:09.537Z,24.08
2022-09-12T16:21:15.313Z,24.02
2022-09-12T16:24:17.824Z,23.95
2022-09-12T16:27:20.027Z,23.95
2022-09-12T16:30:22.261Z,23.91
2022-09-12T16:33:25.118Z,23.88
2022-09-12T16:36:27.265Z,23.87
2022-09-12T16:39:29.268Z,23.86
2022-09-12T16:42:31.379Z,23.88
2022-09-12T16:45:33.448Z,23.87
2022-09-12T16:48:36.023Z,23.82
2022-09-12T16:51:38.406Z,23.76
2022-09-12T16:54:40.691Z,23.74
2022-09-12T16:57:42.743Z,23.73
2022-09-12T17:00:44.740Z,23.71
2022-09-12T17:03:47.309Z,23.68
2022-09-12T17:06:49.303Z,23.61
2022-09-12T17:09:52.248Z,23.55
2022-09-12T17:12:54.374Z,23.51
2022-09-12T17:15:56.680Z,23.46
2022-09-12T17:18:58.855Z,23.43
2022-09-12T17:22:01.221Z,23.38
2022-09-12T17:25:03.390Z,23.35
2022-09-12T17:28:05.793Z,23.34
2022-09-12T17:31:11.221Z,23.29
2022-09-12T17:34:17.655Z,23.25
2022-09-12T17:37:19.782Z,23.15
2022-09-12T17:40:37.076Z,23.08
2022-09-12T17:43:50.878Z,23.10
2022-09-12T17:46:52.953Z,23.27
2022-09-12T17:50:09.191Z,23.41
2022-09-12T17:53:17.713Z,23.47
2022-09-12T17:56:20.439Z,23.45
2022-09-12T17:59:24.705Z,23.44
2022-09-12T18:02:29.369Z,23.40
2022-09-12T18:05:35.410Z,23.38
2022-09-12T18:08:37.485Z,23.40
2022-09-12T18:11:39.873Z,23.51
2022-09-12T18:14:42.217Z,23.49
2022-09-12T18:17:44.357Z,23.39
2022-09-12T18:20:51.084Z,23.35
2022-09-12T18:23:53.275Z,23.36
2022-09-12T18:26:58.654Z,23.31
2022-09-12T18:30:20.216Z,23.28
2022-09-12T18:33:24.243Z,23.24
2022-09-12T18:36:26.872Z,23.20
2022-09-12T18:39:28.916Z,23.17
2022-09-12T18:42:31.025Z,23.14
2022-09-12T18:45:33.770Z,23.12
2022-09-12T18:48:36.025Z,23.12
2022-09-12T18:51:40.231Z,23.12
2022-09-12T18:54:42.313Z,23.14
2022-09-12T18:57:44.640Z,23.11
2022-09-12T19:00:48.443Z,23.09
2022-09-12T19:03:51.208Z,23.07
2022-09-12T19:06:53.348Z,23.06
2022-09-12T19:09:55.555Z,23.06
2022-09-12T19:12:57.688Z,23.02
2022-09-12T19:16:01.473Z,23.01
2022-09-12T19:19:04.051Z,23.03
2022-09-12T19:22:06.280Z,23.02
2022-09-12T19:25:08.899Z,22.97
2022-09-12T19:28:11.583Z,22.97
2022-09-12T19:31:16.558Z,22.97
2022-09-12T19:34:18.652Z,22.95
2022-09-12T19:37:20.675Z,22.93
2022-09-12T19:40:22.894Z,22.95
2022-09-12T19:43:25.315Z,22.93
2022-09-12T19:46:27.770Z,22.91
2022-09-12T19:49:29.937Z,22.88
2022-09-12T19:52:32.024Z,22.85
2022-09-12T19:55:35.647Z,22.88
2022-09-12T19:58:43.404Z,22.87
2022-09-12T20:01:45.969Z,22.84
2022-09-12T20:04:48.089Z,22.85
2022-09-12T20:07:51.475Z,22.85
2022-09-12T20:10:57.175Z,22.81
2022-09-12T20:13:59.364Z,22.84
2022-09-12T20:17:01.425Z,22.82
2022-09-12T20:20:04.949Z,22.81
2022-09-12T20:23:07.226Z,22.81
2022-09-12T20:26:09.919Z,22.82
2022-09-12T20:29:12.564Z,22.81
2022-09-12T20:32:14.626Z,22.80
2022-09-12T20:35:17.261Z,22.79
2022-09-12T20:38:19.295Z,22.78
2022-09-12T20:41:22.457Z,22.76
2022-09-12T20:44:24.521Z,22.77
2022-09-12T20:47:26.707Z,22.76
2022-09-12T20:50:29.027Z,22.76
2022-09-12T20:53:34.816Z,22.79
2022-09-12T20:56:38.171Z,22.77
2022-09-12T20:59:42.440Z,22.70
2022-09-12T21:02:44.491Z,22.70
2022-09-12T21:05:46.900Z,22.71
2022-09-12T21:08:49.884Z,22.71
2022-09-12T21:11:51.936Z,22.70
2022-09-12T21:14:54.027Z,22.65
2022-09-12T21:17:56.054Z,22.64
2022-09-12T21:20:58.245Z,22.65
2022-09-12T21:24:02.671Z,22.65
2022-09-12T21:27:04.954Z,22.66
2022-09-12T21:30:07.505Z,22.65
2022-09-12T21:33:12.611Z,22.63
2022-09-12T21:36:14.772Z,22.60
2022-09-12T21:39:16.772Z,22.62
2022-09-12T21:42:18.827Z,22.61
2022-09-12T21:45:20.923Z,22.60
2022-09-12T21:48:22.940Z,22.62
2022-09-12T21:51:25.168Z,22.58
2022-09-12T21:54:27.181Z,22.58
2022-09-12T21:57:29.256Z,22.57
2022-09-12T22:00:31.336Z,22.55
2022-09-12T22:03:33.424Z,22.55
2022-09-12T22:06:35.510Z,22.54
2022-09-12T22:09:37.541Z,22.53
2022-09-12T22:12:44.008Z,22.50
2022-09-12T22:15:51.923Z,22.52
2022-09-12T22:18:54.287Z,22.51
2022-09-12T22:22:14.885Z,22.47
2022-09-12T22:25:17.004Z,22.49
2022-09-12T22:28:19.052Z,22.50
2022-09-12T22:31:21.284Z,22.47
2022-09-12T22:34:23.477Z,22.47
2022-09-12T22:37:26.406Z,22.46
2022-09-12T22:40:28.422Z,22.49
2022-09-12T22:43:31.295Z,22.44
2022-09-12T22:46:33.777Z,22.46
2022-09-12T22:49:36.062Z,22.43
2022-09-12T22:52:38.071Z,22.46
2022-09-12T22:55:40.064Z,22.43
2022-09-12T22:58:43.015Z,22.43
2022-09-12T23:01:45.018Z,22.41
2022-09-12T23:04:47.057Z,22.40
2022-09-12T23:07:50.211Z,22.40
2022-09-12T23:10:59.209Z,22.39
2022-09-12T23:14:01.278Z,22.38
2022-09-12T23:17:03.412Z,22.38
2022-09-12T23:20:06.283Z,22.37
2022-09-12T23:23:08.455Z,22.37
2022-09-12T23:26:16.067Z,22.36
2022-09-12T23:29:18.132Z,22.36
2022-09-12T23:32:21.080Z,22.36
2022-09-12T23:35:23.094Z,22.36
2022-09-12T23:38:25.255Z,22.34
2022-09-12T23:41:27.382Z,22.34
2022-09-12T23:44:29.402Z,22.33
2022-09-12T23:47:31.425Z,22.32
2022-09-12T23:50:33.421Z,22.28
2022-09-12T23:53:35.780Z,22.24
2022-09-12T23:56:37.793Z,22.26
2022-09-12T23:59:39.784Z,22.28
